sensor_id;sensor_type;location;lat;lon;timestamp;P1;durP1;ratioP1;P2;durP2;ratioP2
37201;SDS011;37799;52.390;6.136;2023-11-19T00:01:45;15.15;;;5.47;;
37201;SDS011;37799;52.390;6.136;2023-11-19T00:04:12;15.60;;;5.47;;
37201;SDS011;37799;52.390;6.136;2023-11-19T00:06:37;15.90;;;4.72;;
37201;SDS011;37799;52.390;6.136;2023-11-19T00:09:02;12.70;;;5.57;;
37201;SDS011;37799;52.390;6.136;2023-11-19T00:11:28;16.85;;;6.32;;
37201;SDS011;37799;52.390;6.136;2023-11-19T00:13:54;15.80;;;5.68;;
37201;SDS011;37799;52.390;6.136;2023-11-19T00:16:19;13.95;;;4.75;;
37201;SDS011;37799;52.390;6.136;2023-11-19T00:18:44;11.93;;;4.78;;
37201;SDS011;37799;52.390;6.136;2023-11-19T00:21:10;10.65;;;4.13;;
37201;SDS011;37799;52.390;6.136;2023-11-19T00:23:35;15.77;;;4.60;;
37201;SDS011;37799;52.390;6.136;2023-11-19T00:26:01;16.60;;;5.25;;
37201;SDS011;37799;52.390;6.136;2023-11-19T00:28:27;18.42;;;4.90;;
37201;SDS011;37799;52.390;6.136;2023-11-19T00:30:52;14.95;;;4.90;;
37201;SDS011;37799;52.390;6.136;2023-11-19T00:33:18;17.80;;;4.18;;
37201;SDS011;37799;52.390;6.136;2023-11-19T00:35:43;16.27;;;5.60;;
37201;SDS011;37799;52.390;6.136;2023-11-19T00:38:08;11.77;;;3.83;;
37201;SDS011;37799;52.390;6.136;2023-11-19T00:40:34;15.90;;;4.15;;
37201;SDS011;37799;52.390;6.136;2023-11-19T00:42:59;12.15;;;4.00;;
37201;SDS011;37799;52.390;6.136;2023-11-19T00:45:24;11.55;;;4.07;;
37201;SDS011;37799;52.390;6.136;2023-11-19T00:47:50;17.88;;;4.00;;
37201;SDS011;37799;52.390;6.136;2023-11-19T00:50:15;12.45;;;4.43;;
37201;SDS011;37799;52.390;6.136;2023-11-19T00:52:41;17.35;;;4.85;;
37201;SDS011;37799;52.390;6.136;2023-11-19T00:55:06;18.08;;;7.85;;
37201;SDS011;37799;52.390;6.136;2023-11-19T00:57:32;22.23;;;7.63;;
37201;SDS011;37799;52.390;6.136;2023-11-19T00:59:58;20.17;;;8.23;;
37201;SDS011;37799;52.390;6.136;2023-11-19T01:02:31;22.42;;;7.32;;
37201;SDS011;37799;52.390;6.136;2023-11-19T01:04:56;17.00;;;6.20;;
37201;SDS011;37799;52.390;6.136;2023-11-19T01:07:22;16.43;;;3.93;;
37201;SDS011;37799;52.390;6.136;2023-11-19T01:09:49;15.63;;;4.05;;
37201;SDS011;37799;52.390;6.136;2023-11-19T01:12:14;11.93;;;2.47;;
37201;SDS011;37799;52.390;6.136;2023-11-19T01:14:39;13.13;;;2.55;;
37201;SDS011;37799;52.390;6.136;2023-11-19T01:17:05;13.18;;;3.03;;
37201;SDS011;37799;52.390;6.136;2023-11-19T01:19:30;10.50;;;3.15;;
37201;SDS011;37799;52.390;6.136;2023-11-19T01:21:56;10.15;;;2.92;;
37201;SDS011;37799;52.390;6.136;2023-11-19T01:24:21;12.13;;;2.50;;
37201;SDS011;37799;52.390;6.136;2023-11-19T01:26:47;11.18;;;2.50;;
37201;SDS011;37799;52.390;6.136;2023-11-19T01:29:15;15.50;;;2.70;;
37201;SDS011;37799;52.390;6.136;2023-11-19T01:31:41;10.95;;;2.78;;
37201;SDS011;37799;52.390;6.136;2023-11-19T01:34:07;14.00;;;3.65;;
37201;SDS011;37799;52.390;6.136;2023-11-19T01:36:32;20.20;;;2.92;;
37201;SDS011;37799;52.390;6.136;2023-11-19T01:38:58;13.02;;;2.72;;
37201;SDS011;37799;52.390;6.136;2023-11-19T01:41:23;17.48;;;3.20;;
37201;SDS011;37799;52.390;6.136;2023-11-19T01:43:49;14.93;;;2.33;;
37201;SDS011;37799;52.390;6.136;2023-11-19T01:46:15;13.82;;;2.58;;
37201;SDS011;37799;52.390;6.136;2023-11-19T01:48:41;14.02;;;2.08;;
37201;SDS011;37799;52.390;6.136;2023-11-19T01:51:09;8.48;;;2.55;;
37201;SDS011;37799;52.390;6.136;2023-11-19T01:53:36;9.88;;;2.30;;
37201;SDS011;37799;52.390;6.136;2023-11-19T01:56:03;11.20;;;1.60;;
37201;SDS011;37799;52.390;6.136;2023-11-19T01:58:29;17.80;;;2.22;;
37201;SDS011;37799;52.390;6.136;2023-11-19T02:00:56;10.13;;;1.70;;
37201;SDS011;37799;52.390;6.136;2023-11-19T02:03:22;12.45;;;1.95;;
37201;SDS011;37799;52.390;6.136;2023-11-19T02:05:50;11.07;;;1.77;;
37201;SDS011;37799;52.390;6.136;2023-11-19T02:08:18;15.40;;;1.70;;
37201;SDS011;37799;52.390;6.136;2023-11-19T02:10:43;13.52;;;1.95;;
37201;SDS011;37799;52.390;6.136;2023-11-19T02:13:08;10.35;;;1.52;;
37201;SDS011;37799;52.390;6.136;2023-11-19T02:15:35;12.18;;;1.33;;
37201;SDS011;37799;52.390;6.136;2023-11-19T02:18:19;10.65;;;1.83;;
37201;SDS011;37799;52.390;6.136;2023-11-19T02:20:46;12.00;;;2.05;;
37201;SDS011;37799;52.390;6.136;2023-11-19T02:23:13;10.30;;;1.50;;
37201;SDS011;37799;52.390;6.136;2023-11-19T02:25:38;9.80;;;1.45;;
37201;SDS011;37799;52.390;6.136;2023-11-19T02:28:05;9.65;;;1.50;;
37201;SDS011;37799;52.390;6.136;2023-11-19T02:30:31;11.02;;;1.30;;
37201;SDS011;37799;52.390;6.136;2023-11-19T02:32:57;12.60;;;1.80;;
37201;SDS011;37799;52.390;6.136;2023-11-19T02:35:26;12.00;;;2.97;;
37201;SDS011;37799;52.390;6.136;2023-11-19T02:37:53;8.80;;;1.38;;
37201;SDS011;37799;52.390;6.136;2023-11-19T02:40:19;13.70;;;1.60;;
37201;SDS011;37799;52.390;6.136;2023-11-19T02:42:44;9.80;;;1.20;;
37201;SDS011;37799;52.390;6.136;2023-11-19T02:45:10;12.05;;;1.40;;
37201;SDS011;37799;52.390;6.136;2023-11-19T02:47:39;18.02;;;2.75;;
37201;SDS011;37799;52.390;6.136;2023-11-19T02:50:07;16.52;;;1.10;;
37201;SDS011;37799;52.390;6.136;2023-11-19T02:52:42;16.67;;;1.85;;
37201;SDS011;37799;52.390;6.136;2023-11-19T02:55:09;14.35;;;1.75;;
37201;SDS011;37799;52.390;6.136;2023-11-19T02:57:37;9.63;;;1.33;;
37201;SDS011;37799;52.390;6.136;2023-11-19T03:00:03;11.75;;;1.30;;
37201;SDS011;37799;52.390;6.136;2023-11-19T03:02:38;10.02;;;1.27;;
37201;SDS011;37799;52.390;6.136;2023-11-19T03:05:09;15.40;;;1.42;;
37201;SDS011;37799;52.390;6.136;2023-11-19T03:07:35;10.45;;;0.93;;
37201;SDS011;37799;52.390;6.136;2023-11-19T03:10:00;12.52;;;1.95;;
37201;SDS011;37799;52.390;6.136;2023-11-19T03:12:25;10.40;;;1.15;;
37201;SDS011;37799;52.390;6.136;2023-11-19T03:14:51;14.68;;;1.65;;
37201;SDS011;37799;52.390;6.136;2023-11-19T03:17:16;11.68;;;1.17;;
37201;SDS011;37799;52.390;6.136;2023-11-19T03:19:42;12.25;;;1.90;;
37201;SDS011;37799;52.390;6.136;2023-11-19T03:22:07;11.48;;;1.30;;
37201;SDS011;37799;52.390;6.136;2023-11-19T03:24:32;13.90;;;2.67;;
37201;SDS011;37799;52.390;6.136;2023-11-19T03:26:58;18.50;;;1.92;;
37201;SDS011;37799;52.390;6.136;2023-11-19T03:29:23;15.65;;;1.73;;
37201;SDS011;37799;52.390;6.136;2023-11-19T03:31:48;15.90;;;2.30;;
37201;SDS011;37799;52.390;6.136;2023-11-19T03:34:15;15.18;;;1.70;;
37201;SDS011;37799;52.390;6.136;2023-11-19T03:36:40;14.85;;;1.48;;
37201;SDS011;37799;52.390;6.136;2023-11-19T03:39:05;10.35;;;1.65;;
37201;SDS011;37799;52.390;6.136;2023-11-19T03:41:31;12.88;;;1.70;;
37201;SDS011;37799;52.390;6.136;2023-11-19T03:43:56;11.13;;;0.85;;
37201;SDS011;37799;52.390;6.136;2023-11-19T03:46:22;11.13;;;2.10;;
37201;SDS011;37799;52.390;6.136;2023-11-19T03:48:47;18.33;;;1.80;;
37201;SDS011;37799;52.390;6.136;2023-11-19T03:51:14;8.45;;;1.08;;
37201;SDS011;37799;52.390;6.136;2023-11-19T03:53:43;11.27;;;2.03;;
37201;SDS011;37799;52.390;6.136;2023-11-19T03:56:12;15.00;;;2.22;;
37201;SDS011;37799;52.390;6.136;2023-11-19T03:58:38;16.17;;;2.13;;
37201;SDS011;37799;52.390;6.136;2023-11-19T04:01:12;15.82;;;1.42;;
37201;SDS011;37799;52.390;6.136;2023-11-19T04:03:38;15.30;;;1.92;;
37201;SDS011;37799;52.390;6.136;2023-11-19T04:06:03;12.60;;;1.05;;
37201;SDS011;37799;52.390;6.136;2023-11-19T04:08:29;13.82;;;1.50;;
37201;SDS011;37799;52.390;6.136;2023-11-19T04:10:55;22.13;;;1.58;;
37201;SDS011;37799;52.390;6.136;2023-11-19T04:13:20;15.32;;;2.78;;
37201;SDS011;37799;52.390;6.136;2023-11-19T04:15:45;16.85;;;1.60;;
37201;SDS011;37799;52.390;6.136;2023-11-19T04:18:11;15.77;;;1.63;;
37201;SDS011;37799;52.390;6.136;2023-11-19T04:20:36;19.90;;;1.17;;
37201;SDS011;37799;52.390;6.136;2023-11-19T04:23:01;18.17;;;2.22;;
37201;SDS011;37799;52.390;6.136;2023-11-19T04:25:27;14.50;;;1.85;;
37201;SDS011;37799;52.390;6.136;2023-11-19T04:27:52;19.90;;;1.75;;
37201;SDS011;37799;52.390;6.136;2023-11-19T04:30:17;13.45;;;1.40;;
37201;SDS011;37799;52.390;6.136;2023-11-19T04:32:43;12.27;;;1.33;;
37201;SDS011;37799;52.390;6.136;2023-11-19T04:35:08;16.23;;;1.65;;
37201;SDS011;37799;52.390;6.136;2023-11-19T04:37:34;9.88;;;1.45;;
37201;SDS011;37799;52.390;6.136;2023-11-19T04:40:00;25.05;;;2.00;;
37201;SDS011;37799;52.390;6.136;2023-11-19T04:42:25;22.02;;;3.45;;
37201;SDS011;37799;52.390;6.136;2023-11-19T04:44:51;10.50;;;1.55;;
37201;SDS011;37799;52.390;6.136;2023-11-19T04:47:16;13.25;;;1.50;;
37201;SDS011;37799;52.390;6.136;2023-11-19T04:49:41;14.75;;;1.30;;
37201;SDS011;37799;52.390;6.136;2023-11-19T04:52:07;15.48;;;1.50;;
37201;SDS011;37799;52.390;6.136;2023-11-19T04:54:33;16.10;;;1.90;;
37201;SDS011;37799;52.390;6.136;2023-11-19T04:56:58;16.45;;;2.30;;
37201;SDS011;37799;52.390;6.136;2023-11-19T04:59:24;14.15;;;1.35;;
37201;SDS011;37799;52.390;6.136;2023-11-19T05:01:49;15.82;;;1.73;;
37201;SDS011;37799;52.390;6.136;2023-11-19T05:04:15;14.52;;;2.17;;
37201;SDS011;37799;52.390;6.136;2023-11-19T05:06:41;14.80;;;1.50;;
37201;SDS011;37799;52.390;6.136;2023-11-19T05:09:06;15.68;;;2.10;;
37201;SDS011;37799;52.390;6.136;2023-11-19T05:11:37;19.85;;;2.03;;
37201;SDS011;37799;52.390;6.136;2023-11-19T05:14:03;19.38;;;2.15;;
37201;SDS011;37799;52.390;6.136;2023-11-19T05:16:29;14.48;;;2.08;;
37201;SDS011;37799;52.390;6.136;2023-11-19T05:18:54;21.33;;;2.28;;
37201;SDS011;37799;52.390;6.136;2023-11-19T05:21:19;25.63;;;2.13;;
37201;SDS011;37799;52.390;6.136;2023-11-19T05:23:45;18.13;;;2.33;;
37201;SDS011;37799;52.390;6.136;2023-11-19T05:26:17;16.05;;;1.80;;
37201;SDS011;37799;52.390;6.136;2023-11-19T05:28:46;11.20;;;1.17;;
37201;SDS011;37799;52.390;6.136;2023-11-19T05:31:12;17.05;;;2.17;;
37201;SDS011;37799;52.390;6.136;2023-11-19T05:33:37;18.33;;;2.03;;
37201;SDS011;37799;52.390;6.136;2023-11-19T05:36:03;14.25;;;1.70;;
37201;SDS011;37799;52.390;6.136;2023-11-19T05:38:29;17.35;;;1.83;;
37201;SDS011;37799;52.390;6.136;2023-11-19T05:40:54;11.52;;;1.33;;
37201;SDS011;37799;52.390;6.136;2023-11-19T05:43:20;24.73;;;2.15;;
37201;SDS011;37799;52.390;6.136;2023-11-19T05:45:46;16.25;;;1.42;;
37201;SDS011;37799;52.390;6.136;2023-11-19T05:48:11;15.48;;;2.08;;
37201;SDS011;37799;52.390;6.136;2023-11-19T05:50:37;14.35;;;2.55;;
37201;SDS011;37799;52.390;6.136;2023-11-19T05:53:02;15.85;;;2.35;;
37201;SDS011;37799;52.390;6.136;2023-11-19T05:55:30;16.35;;;1.83;;
37201;SDS011;37799;52.390;6.136;2023-11-19T05:57:56;16.67;;;2.22;;
37201;SDS011;37799;52.390;6.136;2023-11-19T06:00:21;12.73;;;1.95;;
37201;SDS011;37799;52.390;6.136;2023-11-19T06:02:46;19.27;;;1.90;;
37201;SDS011;37799;52.390;6.136;2023-11-19T06:05:11;15.35;;;1.48;;
37201;SDS011;37799;52.390;6.136;2023-11-19T06:07:37;13.23;;;2.03;;
37201;SDS011;37799;52.390;6.136;2023-11-19T06:10:04;17.38;;;2.13;;
37201;SDS011;37799;52.390;6.136;2023-11-19T06:12:30;16.02;;;1.77;;
37201;SDS011;37799;52.390;6.136;2023-11-19T06:14:56;16.98;;;2.22;;
37201;SDS011;37799;52.390;6.136;2023-11-19T06:17:22;19.70;;;2.15;;
37201;SDS011;37799;52.390;6.136;2023-11-19T06:19:47;11.40;;;1.42;;
37201;SDS011;37799;52.390;6.136;2023-11-19T06:22:12;14.68;;;1.48;;
37201;SDS011;37799;52.390;6.136;2023-11-19T06:24:38;18.05;;;1.33;;
37201;SDS011;37799;52.390;6.136;2023-11-19T06:27:03;18.85;;;2.33;;
37201;SDS011;37799;52.390;6.136;2023-11-19T06:29:29;16.15;;;1.88;;
37201;SDS011;37799;52.390;6.136;2023-11-19T06:31:54;17.13;;;1.63;;
37201;SDS011;37799;52.390;6.136;2023-11-19T06:34:20;11.80;;;1.52;;
37201;SDS011;37799;52.390;6.136;2023-11-19T06:36:45;14.95;;;1.70;;
37201;SDS011;37799;52.390;6.136;2023-11-19T06:39:10;18.85;;;1.67;;
37201;SDS011;37799;52.390;6.136;2023-11-19T06:41:36;15.60;;;1.50;;
37201;SDS011;37799;52.390;6.136;2023-11-19T06:44:03;15.82;;;1.40;;
37201;SDS011;37799;52.390;6.136;2023-11-19T06:46:29;17.77;;;1.70;;
37201;SDS011;37799;52.390;6.136;2023-11-19T06:48:55;15.70;;;1.55;;
37201;SDS011;37799;52.390;6.136;2023-11-19T06:51:20;12.68;;;0.95;;
37201;SDS011;37799;52.390;6.136;2023-11-19T06:53:45;17.35;;;1.70;;
37201;SDS011;37799;52.390;6.136;2023-11-19T06:56:23;18.73;;;1.52;;
37201;SDS011;37799;52.390;6.136;2023-11-19T06:58:49;18.20;;;1.60;;
37201;SDS011;37799;52.390;6.136;2023-11-19T07:01:16;16.98;;;1.55;;
37201;SDS011;37799;52.390;6.136;2023-11-19T07:03:42;19.10;;;1.83;;
37201;SDS011;37799;52.390;6.136;2023-11-19T07:06:09;14.55;;;1.80;;
37201;SDS011;37799;52.390;6.136;2023-11-19T07:08:35;19.88;;;1.95;;
37201;SDS011;37799;52.390;6.136;2023-11-19T07:11:01;14.82;;;1.60;;
37201;SDS011;37799;52.390;6.136;2023-11-19T07:13:26;12.68;;;2.13;;
37201;SDS011;37799;52.390;6.136;2023-11-19T07:15:53;17.23;;;1.52;;
37201;SDS011;37799;52.390;6.136;2023-11-19T07:18:19;12.90;;;1.20;;
37201;SDS011;37799;52.390;6.136;2023-11-19T07:20:47;13.20;;;1.50;;
37201;SDS011;37799;52.390;6.136;2023-11-19T07:23:12;18.10;;;1.95;;
37201;SDS011;37799;52.390;6.136;2023-11-19T07:25:39;15.85;;;2.55;;
37201;SDS011;37799;52.390;6.136;2023-11-19T07:28:05;14.32;;;2.25;;
37201;SDS011;37799;52.390;6.136;2023-11-19T07:30:30;19.15;;;2.08;;
37201;SDS011;37799;52.390;6.136;2023-11-19T07:32:56;14.85;;;1.30;;
37201;SDS011;37799;52.390;6.136;2023-11-19T07:35:21;19.70;;;1.63;;
37201;SDS011;37799;52.390;6.136;2023-11-19T07:37:47;17.15;;;1.63;;
37201;SDS011;37799;52.390;6.136;2023-11-19T07:40:12;19.67;;;2.40;;
37201;SDS011;37799;52.390;6.136;2023-11-19T07:42:38;11.43;;;1.50;;
37201;SDS011;37799;52.390;6.136;2023-11-19T07:45:03;15.75;;;1.40;;
37201;SDS011;37799;52.390;6.136;2023-11-19T07:47:30;14.18;;;1.52;;
37201;SDS011;37799;52.390;6.136;2023-11-19T07:49:55;19.77;;;1.98;;
37201;SDS011;37799;52.390;6.136;2023-11-19T07:52:21;20.75;;;3.17;;
37201;SDS011;37799;52.390;6.136;2023-11-19T07:54:46;17.88;;;1.88;;
37201;SDS011;37799;52.390;6.136;2023-11-19T07:57:11;11.13;;;1.55;;
37201;SDS011;37799;52.390;6.136;2023-11-19T07:59:37;21.75;;;2.20;;
37201;SDS011;37799;52.390;6.136;2023-11-19T08:02:02;13.63;;;1.65;;
37201;SDS011;37799;52.390;6.136;2023-11-19T08:04:28;10.68;;;1.00;;
37201;SDS011;37799;52.390;6.136;2023-11-19T08:06:53;16.27;;;1.45;;
37201;SDS011;37799;52.390;6.136;2023-11-19T08:09:19;15.80;;;1.75;;
37201;SDS011;37799;52.390;6.136;2023-11-19T08:11:44;23.42;;;2.03;;
37201;SDS011;37799;52.390;6.136;2023-11-19T08:14:10;18.35;;;1.70;;
37201;SDS011;37799;52.390;6.136;2023-11-19T08:16:36;17.30;;;1.58;;
37201;SDS011;37799;52.390;6.136;2023-11-19T08:19:02;14.75;;;1.80;;
37201;SDS011;37799;52.390;6.136;2023-11-19T08:21:28;17.05;;;1.58;;
37201;SDS011;37799;52.390;6.136;2023-11-19T08:23:53;15.13;;;1.23;;
37201;SDS011;37799;52.390;6.136;2023-11-19T08:26:19;10.15;;;1.17;;
37201;SDS011;37799;52.390;6.136;2023-11-19T08:28:44;16.60;;;1.70;;
37201;SDS011;37799;52.390;6.136;2023-11-19T08:31:09;16.00;;;1.23;;
37201;SDS011;37799;52.390;6.136;2023-11-19T08:33:34;16.60;;;1.55;;
37201;SDS011;37799;52.390;6.136;2023-11-19T08:36:00;17.88;;;1.48;;
37201;SDS011;37799;52.390;6.136;2023-11-19T08:38:26;13.30;;;1.80;;
37201;SDS011;37799;52.390;6.136;2023-11-19T08:40:51;15.07;;;1.77;;
37201;SDS011;37799;52.390;6.136;2023-11-19T08:43:17;15.45;;;1.52;;
37201;SDS011;37799;52.390;6.136;2023-11-19T08:45:42;14.50;;;1.58;;
37201;SDS011;37799;52.390;6.136;2023-11-19T08:48:07;14.07;;;1.48;;
37201;SDS011;37799;52.390;6.136;2023-11-19T08:50:33;15.38;;;2.17;;
37201;SDS011;37799;52.390;6.136;2023-11-19T08:52:58;13.25;;;1.60;;
37201;SDS011;37799;52.390;6.136;2023-11-19T08:55:23;16.55;;;1.98;;
37201;SDS011;37799;52.390;6.136;2023-11-19T08:57:49;17.40;;;1.60;;
37201;SDS011;37799;52.390;6.136;2023-11-19T09:00:14;13.73;;;1.20;;
37201;SDS011;37799;52.390;6.136;2023-11-19T09:02:39;11.52;;;2.38;;
37201;SDS011;37799;52.390;6.136;2023-11-19T09:05:05;13.50;;;2.03;;
37201;SDS011;37799;52.390;6.136;2023-11-19T09:07:32;13.68;;;2.08;;
37201;SDS011;37799;52.390;6.136;2023-11-19T09:09:58;13.90;;;1.75;;
37201;SDS011;37799;52.390;6.136;2023-11-19T09:12:23;13.55;;;1.40;;
37201;SDS011;37799;52.390;6.136;2023-11-19T09:14:48;14.07;;;1.48;;
37201;SDS011;37799;52.390;6.136;2023-11-19T09:17:14;18.92;;;2.05;;
37201;SDS011;37799;52.390;6.136;2023-11-19T09:19:40;18.00;;;1.65;;
37201;SDS011;37799;52.390;6.136;2023-11-19T09:22:05;19.33;;;1.80;;
37201;SDS011;37799;52.390;6.136;2023-11-19T09:24:30;23.95;;;2.25;;
37201;SDS011;37799;52.390;6.136;2023-11-19T09:26:56;15.35;;;1.95;;
37201;SDS011;37799;52.390;6.136;2023-11-19T09:29:22;15.13;;;2.33;;
37201;SDS011;37799;52.390;6.136;2023-11-19T09:31:48;18.85;;;2.08;;
37201;SDS011;37799;52.390;6.136;2023-11-19T09:34:14;13.60;;;1.63;;
37201;SDS011;37799;52.390;6.136;2023-11-19T09:36:39;19.15;;;2.00;;
37201;SDS011;37799;52.390;6.136;2023-11-19T09:39:08;12.95;;;1.85;;
37201;SDS011;37799;52.390;6.136;2023-11-19T09:41:34;11.07;;;1.25;;
37201;SDS011;37799;52.390;6.136;2023-11-19T09:44:00;11.10;;;1.27;;
37201;SDS011;37799;52.390;6.136;2023-11-19T09:46:25;14.05;;;2.00;;
37201;SDS011;37799;52.390;6.136;2023-11-19T09:48:52;14.27;;;1.20;;
37201;SDS011;37799;52.390;6.136;2023-11-19T09:51:21;14.98;;;1.95;;
37201;SDS011;37799;52.390;6.136;2023-11-19T09:53:49;15.50;;;1.23;;
37201;SDS011;37799;52.390;6.136;2023-11-19T09:56:15;15.63;;;1.27;;
37201;SDS011;37799;52.390;6.136;2023-11-19T09:58:42;13.05;;;1.63;;
37201;SDS011;37799;52.390;6.136;2023-11-19T10:01:07;13.57;;;1.55;;
37201;SDS011;37799;52.390;6.136;2023-11-19T10:03:35;11.23;;;1.20;;
37201;SDS011;37799;52.390;6.136;2023-11-19T10:06:06;13.07;;;1.08;;
37201;SDS011;37799;52.390;6.136;2023-11-19T10:08:33;19.45;;;1.58;;
37201;SDS011;37799;52.390;6.136;2023-11-19T10:10:59;19.80;;;1.95;;
37201;SDS011;37799;52.390;6.136;2023-11-19T10:13:30;16.10;;;1.83;;
37201;SDS011;37799;52.390;6.136;2023-11-19T10:15:56;16.67;;;1.90;;
37201;SDS011;37799;52.390;6.136;2023-11-19T10:18:25;14.93;;;1.73;;
37201;SDS011;37799;52.390;6.136;2023-11-19T10:20:51;12.68;;;1.50;;
37201;SDS011;37799;52.390;6.136;2023-11-19T10:23:17;16.65;;;1.52;;
37201;SDS011;37799;52.390;6.136;2023-11-19T10:25:43;7.22;;;1.80;;
37201;SDS011;37799;52.390;6.136;2023-11-19T10:28:08;17.45;;;1.48;;
37201;SDS011;37799;52.390;6.136;2023-11-19T10:30:33;9.50;;;1.23;;
37201;SDS011;37799;52.390;6.136;2023-11-19T10:33:02;11.55;;;1.75;;
37201;SDS011;37799;52.390;6.136;2023-11-19T10:35:28;8.85;;;1.35;;
37201;SDS011;37799;52.390;6.136;2023-11-19T10:37:53;12.85;;;1.45;;
37201;SDS011;37799;52.390;6.136;2023-11-19T10:40:19;16.55;;;2.15;;
37201;SDS011;37799;52.390;6.136;2023-11-19T10:42:45;20.58;;;2.05;;
37201;SDS011;37799;52.390;6.136;2023-11-19T10:45:22;13.60;;;2.00;;
37201;SDS011;37799;52.390;6.136;2023-11-19T10:47:49;16.10;;;1.33;;
37201;SDS011;37799;52.390;6.136;2023-11-19T10:50:16;14.60;;;1.63;;
37201;SDS011;37799;52.390;6.136;2023-11-19T10:52:41;15.02;;;1.90;;
37201;SDS011;37799;52.390;6.136;2023-11-19T10:55:09;14.98;;;1.40;;
37201;SDS011;37799;52.390;6.136;2023-11-19T10:57:39;13.00;;;2.40;;
37201;SDS011;37799;52.390;6.136;2023-11-19T11:00:10;18.38;;;1.90;;
37201;SDS011;37799;52.390;6.136;2023-11-19T11:02:39;15.32;;;2.13;;
37201;SDS011;37799;52.390;6.136;2023-11-19T11:05:07;14.95;;;1.95;;
37201;SDS011;37799;52.390;6.136;2023-11-19T11:07:33;13.93;;;1.60;;
37201;SDS011;37799;52.390;6.136;2023-11-19T11:09:59;10.13;;;1.10;;
37201;SDS011;37799;52.390;6.136;2023-11-19T11:12:26;12.55;;;1.40;;
37201;SDS011;37799;52.390;6.136;2023-11-19T11:14:53;12.50;;;1.15;;
37201;SDS011;37799;52.390;6.136;2023-11-19T11:17:19;13.68;;;1.70;;
37201;SDS011;37799;52.390;6.136;2023-11-19T11:19:49;15.27;;;2.00;;
37201;SDS011;37799;52.390;6.136;2023-11-19T11:22:14;14.57;;;1.75;;
37201;SDS011;37799;52.390;6.136;2023-11-19T11:33:26;13.02;;;1.60;;
37201;SDS011;37799;52.390;6.136;2023-11-19T11:38:44;12.32;;;2.22;;
37201;SDS011;37799;52.390;6.136;2023-11-19T11:41:17;12.00;;;1.45;;
37201;SDS011;37799;52.390;6.136;2023-11-19T11:43:51;13.82;;;1.30;;
37201;SDS011;37799;52.390;6.136;2023-11-19T11:49:07;10.32;;;1.17;;
37201;SDS011;37799;52.390;6.136;2023-11-19T11:54:08;12.98;;;1.10;;
37201;SDS011;37799;52.390;6.136;2023-11-19T11:56:36;14.48;;;1.13;;
37201;SDS011;37799;52.390;6.136;2023-11-19T11:59:03;15.73;;;1.23;;
37201;SDS011;37799;52.390;6.136;2023-11-19T12:01:28;11.45;;;1.30;;
37201;SDS011;37799;52.390;6.136;2023-11-19T12:03:55;11.98;;;1.05;;
37201;SDS011;37799;52.390;6.136;2023-11-19T12:06:21;11.45;;;1.33;;
37201;SDS011;37799;52.390;6.136;2023-11-19T12:08:47;15.65;;;1.77;;
37201;SDS011;37799;52.390;6.136;2023-11-19T12:11:12;17.70;;;2.65;;
37201;SDS011;37799;52.390;6.136;2023-11-19T12:13:54;13.02;;;0.90;;
37201;SDS011;37799;52.390;6.136;2023-11-19T12:16:23;11.05;;;1.13;;
37201;SDS011;37799;52.390;6.136;2023-11-19T12:18:48;11.45;;;1.23;;
37201;SDS011;37799;52.390;6.136;2023-11-19T12:21:27;15.43;;;1.23;;
37201;SDS011;37799;52.390;6.136;2023-11-19T12:23:54;13.95;;;1.92;;
37201;SDS011;37799;52.390;6.136;2023-11-19T12:26:34;13.80;;;1.70;;
37201;SDS011;37799;52.390;6.136;2023-11-19T12:29:02;13.75;;;1.60;;
37201;SDS011;37799;52.390;6.136;2023-11-19T12:31:31;10.50;;;1.00;;
37201;SDS011;37799;52.390;6.136;2023-11-19T12:33:56;11.60;;;1.63;;
37201;SDS011;37799;52.390;6.136;2023-11-19T12:36:22;14.35;;;1.77;;
37201;SDS011;37799;52.390;6.136;2023-11-19T12:38:47;9.13;;;1.20;;
37201;SDS011;37799;52.390;6.136;2023-11-19T12:41:13;15.45;;;1.25;;
37201;SDS011;37799;52.390;6.136;2023-11-19T12:43:42;7.50;;;0.95;;
37201;SDS011;37799;52.390;6.136;2023-11-19T12:46:20;12.02;;;0.93;;
37201;SDS011;37799;52.390;6.136;2023-11-19T12:48:47;6.82;;;1.20;;
37201;SDS011;37799;52.390;6.136;2023-11-19T12:51:13;13.02;;;1.20;;
37201;SDS011;37799;52.390;6.136;2023-11-19T12:54:11;9.52;;;0.88;;
37201;SDS011;37799;52.390;6.136;2023-11-19T12:56:30;10.98;;;1.23;;
37201;SDS011;37799;52.390;6.136;2023-11-19T12:58:55;12.55;;;0.88;;
37201;SDS011;37799;52.390;6.136;2023-11-19T13:01:21;12.23;;;1.05;;
37201;SDS011;37799;52.390;6.136;2023-11-19T13:03:46;9.40;;;1.25;;
37201;SDS011;37799;52.390;6.136;2023-11-19T13:06:14;14.18;;;1.85;;
37201;SDS011;37799;52.390;6.136;2023-11-19T13:08:44;9.32;;;1.00;;
37201;SDS011;37799;52.390;6.136;2023-11-19T13:11:15;9.50;;;0.95;;
37201;SDS011;37799;52.390;6.136;2023-11-19T13:16:24;9.65;;;1.10;;
37201;SDS011;37799;52.390;6.136;2023-11-19T13:18:51;19.10;;;2.35;;
37201;SDS011;37799;52.390;6.136;2023-11-19T13:21:16;10.55;;;1.25;;
37201;SDS011;37799;52.390;6.136;2023-11-19T13:23:42;13.40;;;2.05;;
37201;SDS011;37799;52.390;6.136;2023-11-19T13:26:08;18.60;;;1.58;;
37201;SDS011;37799;52.390;6.136;2023-11-19T13:28:33;11.60;;;1.65;;
37201;SDS011;37799;52.390;6.136;2023-11-19T13:30:59;11.98;;;1.25;;
37201;SDS011;37799;52.390;6.136;2023-11-19T13:33:24;12.50;;;1.42;;
37201;SDS011;37799;52.390;6.136;2023-11-19T13:35:49;10.07;;;1.55;;
37201;SDS011;37799;52.390;6.136;2023-11-19T13:38:14;13.33;;;1.23;;
37201;SDS011;37799;52.390;6.136;2023-11-19T13:40:40;13.50;;;2.22;;
37201;SDS011;37799;52.390;6.136;2023-11-19T13:43:05;12.13;;;2.22;;
37201;SDS011;37799;52.390;6.136;2023-11-19T13:45:31;13.98;;;1.50;;
37201;SDS011;37799;52.390;6.136;2023-11-19T13:47:57;14.00;;;1.80;;
37201;SDS011;37799;52.390;6.136;2023-11-19T13:50:22;13.98;;;1.65;;
37201;SDS011;37799;52.390;6.136;2023-11-19T13:52:48;14.98;;;1.75;;
37201;SDS011;37799;52.390;6.136;2023-11-19T13:55:14;9.02;;;1.25;;
37201;SDS011;37799;52.390;6.136;2023-11-19T13:57:40;10.02;;;1.20;;
37201;SDS011;37799;52.390;6.136;2023-11-19T14:00:07;12.45;;;1.40;;
37201;SDS011;37799;52.390;6.136;2023-11-19T14:02:48;11.88;;;1.08;;
37201;SDS011;37799;52.390;6.136;2023-11-19T14:05:14;12.25;;;2.17;;
37201;SDS011;37799;52.390;6.136;2023-11-19T14:07:43;9.45;;;0.88;;
37201;SDS011;37799;52.390;6.136;2023-11-19T14:10:09;11.20;;;1.70;;
37201;SDS011;37799;52.390;6.136;2023-11-19T14:12:36;10.45;;;1.45;;
37201;SDS011;37799;52.390;6.136;2023-11-19T14:15:02;14.73;;;0.90;;
37201;SDS011;37799;52.390;6.136;2023-11-19T14:17:30;12.43;;;0.90;;
37201;SDS011;37799;52.390;6.136;2023-11-19T14:19:56;14.32;;;1.27;;
37201;SDS011;37799;52.390;6.136;2023-11-19T14:22:21;11.65;;;1.15;;
37201;SDS011;37799;52.390;6.136;2023-11-19T14:24:46;15.18;;;1.23;;
37201;SDS011;37799;52.390;6.136;2023-11-19T14:27:12;14.43;;;1.20;;
37201;SDS011;37799;52.390;6.136;2023-11-19T14:29:37;6.28;;;0.85;;
37201;SDS011;37799;52.390;6.136;2023-11-19T14:32:03;10.77;;;1.30;;
37201;SDS011;37799;52.390;6.136;2023-11-19T14:34:29;7.90;;;1.02;;
37201;SDS011;37799;52.390;6.136;2023-11-19T14:36:55;8.25;;;0.73;;
37201;SDS011;37799;52.390;6.136;2023-11-19T14:39:21;8.48;;;0.70;;
37201;SDS011;37799;52.390;6.136;2023-11-19T14:41:46;10.27;;;1.33;;
37201;SDS011;37799;52.390;6.136;2023-11-19T14:44:11;8.38;;;0.60;;
37201;SDS011;37799;52.390;6.136;2023-11-19T14:46:37;6.45;;;0.60;;
37201;SDS011;37799;52.390;6.136;2023-11-19T14:49:03;7.00;;;0.77;;
37201;SDS011;37799;52.390;6.136;2023-11-19T14:51:35;7.00;;;0.70;;